createdAt,value
2023-06-29T00:02:17.793Z,11.45
2023-06-29T00:04:44.344Z,11.13
2023-06-29T00:07:10.900Z,11.50
2023-06-29T00:09:39.872Z,11.52
2023-06-29T00:12:06.795Z,11.55
2023-06-29T00:14:33.286Z,10.93
2023-06-29T00:16:59.937Z,11.60
2023-06-29T00:19:26.665Z,11.13
2023-06-29T00:21:53.145Z,10.60
2023-06-29T00:24:19.597Z,11.13
2023-06-29T00:26:46.074Z,10.95
2023-06-29T00:29:12.703Z,10.68
2023-06-29T00:31:39.329Z,11.27
2023-06-29T00:34:06.001Z,11.05
2023-06-29T00:36:32.674Z,11.00
2023-06-29T00:38:59.371Z,10.90
2023-06-29T00:41:25.887Z,10.90
2023-06-29T00:43:52.396Z,10.47
2023-06-29T00:46:19.650Z,12.13
2023-06-29T00:48:46.245Z,11.48
2023-06-29T00:51:12.941Z,10.95
2023-06-29T00:53:39.919Z,11.40
2023-06-29T00:56:06.802Z,11.50
2023-06-29T00:58:33.399Z,12.23
2023-06-29T01:00:59.876Z,11.85
2023-06-29T01:03:26.631Z,12.02
2023-06-29T01:05:55.443Z,12.65
2023-06-29T01:08:23.953Z,12.77
2023-06-29T01:10:50.578Z,12.63
2023-06-29T01:13:18.582Z,12.38
2023-06-29T01:15:46.822Z,12.13
2023-06-29T01:18:14.186Z,13.30
2023-06-29T01:20:41.223Z,12.47
2023-06-29T01:23:18.502Z,13.27
2023-06-29T01:25:45.440Z,13.05
2023-06-29T01:28:12.424Z,13.55
2023-06-29T01:30:38.976Z,12.73
2023-06-29T01:33:05.942Z,12.53
2023-06-29T01:35:32.902Z,13.45
2023-06-29T01:38:00.997Z,13.35
2023-06-29T01:40:29.262Z,12.98
2023-06-29T01:42:56.828Z,13.13
2023-06-29T01:45:23.701Z,14.27
2023-06-29T01:47:50.474Z,13.68
2023-06-29T01:50:18.100Z,13.50
2023-06-29T01:52:47.751Z,13.93
2023-06-29T01:55:14.402Z,14.23
2023-06-29T01:57:40.947Z,14.10
2023-06-29T02:00:07.898Z,14.25
2023-06-29T02:02:34.553Z,13.88
2023-06-29T02:05:01.021Z,14.73
2023-06-29T02:07:27.602Z,13.77
2023-06-29T02:09:54.289Z,14.00
2023-06-29T02:12:21.019Z,13.70
2023-06-29T02:14:47.493Z,14.10
2023-06-29T02:17:13.990Z,13.60
2023-06-29T02:19:40.550Z,13.40
2023-06-29T02:22:07.265Z,13.03
2023-06-29T02:24:34.251Z,13.57
2023-06-29T02:27:00.815Z,13.95
2023-06-29T02:29:27.229Z,13.95
2023-06-29T02:31:53.834Z,13.63
2023-06-29T02:34:20.527Z,12.73
2023-06-29T02:36:47.191Z,13.90
2023-06-29T02:39:13.666Z,13.65
2023-06-29T02:41:40.149Z,13.63
2023-06-29T02:44:06.900Z,13.45
2023-06-29T02:46:33.450Z,13.70
2023-06-29T02:49:00.124Z,14.13
2023-06-29T02:51:26.501Z,13.20
2023-06-29T02:53:53.013Z,13.40
2023-06-29T02:56:19.503Z,13.43
2023-06-29T02:58:46.056Z,12.80
2023-06-29T03:01:12.631Z,14.13
2023-06-29T03:03:39.160Z,13.85
2023-06-29T03:06:05.736Z,13.68
2023-06-29T03:08:32.389Z,13.55
2023-06-29T03:10:59.013Z,13.17
2023-06-29T03:13:25.626Z,13.43
2023-06-29T03:15:52.318Z,13.82
2023-06-29T03:18:18.899Z,13.52
2023-06-29T03:20:45.404Z,14.13
2023-06-29T03:23:11.948Z,13.63
2023-06-29T03:25:38.660Z,14.05
2023-06-29T03:28:05.235Z,13.73
2023-06-29T03:30:31.694Z,13.82
2023-06-29T03:32:58.314Z,13.60
2023-06-29T03:35:24.833Z,13.47
2023-06-29T03:37:51.871Z,14.05
2023-06-29T03:40:18.384Z,13.82
2023-06-29T03:42:44.967Z,14.07
2023-06-29T03:45:11.656Z,14.05
2023-06-29T03:47:38.537Z,14.13
2023-06-29T03:50:05.287Z,13.90
2023-06-29T03:52:31.720Z,14.32
2023-06-29T03:54:58.249Z,13.65
2023-06-29T03:57:24.755Z,13.93
2023-06-29T03:59:51.307Z,13.33
2023-06-29T04:02:17.910Z,14.07
2023-06-29T04:04:44.539Z,13.45
2023-06-29T04:07:11.180Z,13.90
2023-06-29T04:09:38.048Z,14.38
2023-06-29T04:12:05.845Z,13.50
2023-06-29T04:14:32.233Z,13.40
2023-06-29T04:16:58.679Z,14.15
2023-06-29T04:19:25.360Z,14.48
2023-06-29T04:21:51.804Z,13.45
2023-06-29T04:24:18.394Z,14.30
2023-06-29T04:26:44.926Z,13.80
2023-06-29T04:29:11.530Z,14.63
2023-06-29T04:31:38.352Z,17.60
2023-06-29T04:34:05.041Z,14.02
2023-06-29T04:36:31.715Z,14.20
2023-06-29T04:38:58.313Z,14.18
2023-06-29T04:41:25.703Z,14.85
2023-06-29T04:43:52.228Z,14.15
2023-06-29T04:46:18.735Z,14.50
2023-06-29T04:48:45.399Z,13.67
2023-06-29T04:51:11.927Z,14.40
2023-06-29T04:53:38.818Z,13.82
2023-06-29T04:56:05.341Z,14.07
2023-06-29T04:58:31.955Z,13.98
2023-06-29T05:00:58.909Z,14.27
2023-06-29T05:03:25.980Z,13.52
2023-06-29T05:05:52.691Z,14.60
2023-06-29T05:08:19.357Z,14.07
2023-06-29T05:10:45.895Z,13.85
2023-06-29T05:13:12.267Z,13.93
2023-06-29T05:15:40.361Z,13.52
2023-06-29T05:18:07.433Z,14.63
2023-06-29T05:20:34.177Z,13.30
2023-06-29T05:23:00.688Z,13.43
2023-06-29T05:25:27.652Z,14.10
2023-06-29T05:27:54.356Z,13.75
2023-06-29T05:30:20.920Z,13.90
2023-06-29T05:32:47.426Z,14.65
2023-06-29T05:35:13.875Z,13.65
2023-06-29T05:37:40.293Z,13.63
2023-06-29T05:40:07.217Z,13.73
2023-06-29T05:42:33.872Z,14.15
2023-06-29T05:45:00.459Z,14.60
2023-06-29T05:47:27.056Z,13.55
2023-06-29T05:49:53.967Z,13.87
2023-06-29T05:52:20.532Z,14.45
2023-06-29T05:54:47.086Z,14.10
2023-06-29T05:57:13.723Z,13.10
2023-06-29T05:59:40.415Z,14.15
2023-06-29T06:02:06.904Z,13.13
2023-06-29T06:04:33.547Z,13.57
2023-06-29T06:07:00.061Z,15.10
2023-06-29T06:09:26.520Z,13.93
2023-06-29T06:11:52.952Z,13.48
2023-06-29T06:14:19.391Z,13.80
2023-06-29T06:16:46.027Z,13.13
2023-06-29T06:19:12.575Z,13.57
2023-06-29T06:21:39.904Z,13.32
2023-06-29T06:24:06.444Z,14.00
2023-06-29T06:26:32.985Z,13.10
2023-06-29T06:28:59.406Z,13.48
2023-06-29T06:31:33.507Z,14.52
2023-06-29T06:34:00.843Z,12.63
2023-06-29T06:36:28.208Z,12.88
2023-06-29T06:38:54.570Z,12.83
2023-06-29T06:41:20.974Z,12.85
2023-06-29T06:43:47.665Z,12.50
2023-06-29T06:46:14.511Z,12.10
2023-06-29T06:48:41.016Z,11.70
2023-06-29T06:51:07.416Z,12.43
2023-06-29T06:53:33.899Z,12.77
2023-06-29T06:56:00.398Z,13.20
2023-06-29T06:58:27.344Z,12.50
2023-06-29T07:00:53.794Z,12.40
2023-06-29T07:03:20.392Z,12.00
2023-06-29T07:05:47.440Z,12.13
2023-06-29T07:08:13.924Z,11.93
2023-06-29T07:10:40.487Z,12.88
2023-06-29T07:13:08.047Z,12.02
2023-06-29T07:15:34.549Z,11.90
2023-06-29T07:18:01.219Z,11.57
2023-06-29T07:25:26.559Z,11.90
2023-06-29T07:27:53.142Z,11.87
2023-06-29T07:30:19.596Z,12.00
2023-06-29T07:32:46.353Z,11.40
2023-06-29T07:35:13.348Z,11.77
2023-06-29T07:37:39.940Z,11.93
2023-06-29T07:40:06.762Z,11.47
2023-06-29T07:42:39.413Z,11.73
2023-06-29T07:45:07.426Z,11.40
2023-06-29T07:47:33.997Z,11.88
2023-06-29T07:50:00.570Z,11.75
2023-06-29T07:52:27.182Z,11.83
2023-06-29T07:54:53.672Z,11.30
2023-06-29T07:59:49.621Z,12.43
2023-06-29T08:02:16.660Z,12.10
2023-06-29T08:07:12.634Z,12.07
2023-06-29T08:09:39.386Z,12.10
2023-06-29T08:12:06.190Z,11.63
2023-06-29T08:14:32.618Z,12.00
2023-06-29T08:16:59.142Z,11.57
2023-06-29T08:19:25.625Z,12.48
2023-06-29T08:21:52.206Z,11.52
2023-06-29T08:24:18.655Z,11.90
2023-06-29T08:26:45.127Z,12.15
2023-06-29T08:29:12.004Z,12.30
2023-06-29T08:31:38.726Z,11.52
2023-06-29T08:34:05.524Z,11.95
2023-06-29T08:36:33.973Z,11.55
2023-06-29T08:39:00.848Z,11.93
2023-06-29T08:41:27.825Z,12.10
2023-06-29T08:43:54.316Z,12.40
2023-06-29T08:46:21.196Z,12.90
2023-06-29T08:48:48.814Z,12.50
2023-06-29T08:51:17.750Z,12.60
2023-06-29T08:53:44.219Z,12.40
2023-06-29T08:56:11.384Z,11.75
2023-06-29T08:58:38.504Z,12.18
2023-06-29T09:01:05.478Z,11.70
2023-06-29T09:03:33.219Z,11.35
2023-06-29T09:05:59.928Z,12.47
2023-06-29T09:08:26.550Z,10.75
2023-06-29T09:10:53.019Z,12.32
2023-06-29T09:13:19.434Z,11.60
2023-06-29T09:15:46.405Z,11.45
2023-06-29T09:18:13.010Z,11.43
2023-06-29T09:20:39.836Z,11.20
2023-06-29T09:23:06.334Z,11.00
2023-06-29T09:25:40.060Z,10.93
2023-06-29T09:28:07.200Z,10.93
2023-06-29T09:30:38.621Z,10.60
2023-06-29T09:33:06.373Z,10.13
2023-06-29T09:35:32.774Z,10.88
2023-06-29T09:38:03.893Z,10.95
2023-06-29T09:40:30.627Z,11.07
2023-06-29T09:42:57.213Z,10.70
2023-06-29T09:45:28.053Z,10.15
2023-06-29T09:50:24.552Z,12.02
2023-06-29T09:52:53.251Z,11.00
2023-06-29T09:55:28.813Z,11.50
2023-06-29T09:57:56.168Z,12.05
2023-06-29T10:00:23.507Z,11.15
2023-06-29T10:02:50.233Z,10.63
2023-06-29T10:05:17.110Z,10.95
2023-06-29T10:07:43.723Z,11.30
2023-06-29T10:10:12.128Z,11.00
2023-06-29T10:12:38.584Z,10.90
2023-06-29T10:15:09.165Z,11.55
2023-06-29T10:17:50.574Z,12.98
2023-06-29T10:20:19.227Z,11.07
2023-06-29T10:22:46.060Z,12.68
2023-06-29T10:25:15.423Z,11.95
2023-06-29T10:27:42.221Z,12.45
2023-06-29T10:30:09.071Z,12.40
2023-06-29T10:32:39.507Z,11.70
2023-06-29T10:35:06.381Z,11.68
2023-06-29T10:37:32.874Z,13.27
2023-06-29T10:39:59.546Z,12.68
2023-06-29T10:42:28.256Z,14.10
2023-06-29T10:44:54.867Z,13.43
2023-06-29T10:47:31.372Z,14.38
2023-06-29T10:50:10.270Z,13.85
2023-06-29T10:52:37.150Z,14.10
2023-06-29T10:55:23.998Z,13.50
2023-06-29T10:57:54.954Z,13.07
2023-06-29T11:00:22.498Z,12.82
2023-06-29T11:02:49.396Z,12.70
2023-06-29T11:05:19.101Z,12.32
2023-06-29T11:07:46.678Z,12.43
2023-06-29T11:10:13.304Z,12.97
2023-06-29T11:12:41.062Z,12.73
2023-06-29T11:17:57.022Z,13.65
2023-06-29T11:20:26.715Z,13.50
2023-06-29T11:22:53.250Z,12.50
2023-06-29T11:25:19.755Z,12.82
2023-06-29T11:27:46.662Z,12.63
2023-06-29T11:30:13.318Z,12.18
2023-06-29T11:32:40.995Z,11.85
2023-06-29T11:35:08.639Z,11.50
2023-06-29T11:37:35.305Z,10.88
2023-06-29T11:40:04.772Z,10.82
2023-06-29T11:42:31.401Z,11.13
2023-06-29T11:45:01.775Z,9.25
2023-06-29T11:47:33.193Z,10.50
2023-06-29T11:50:05.046Z,9.90
2023-06-29T11:52:32.171Z,8.95
2023-06-29T11:55:02.020Z,9.60
2023-06-29T11:57:31.551Z,8.55
2023-06-29T11:59:58.156Z,7.70
2023-06-29T12:02:24.879Z,8.23
2023-06-29T12:04:55.178Z,8.05
2023-06-29T12:07:35.081Z,8.05
2023-06-29T12:10:09.284Z,8.57
2023-06-29T12:12:39.633Z,9.03
2023-06-29T12:15:13.223Z,9.98
2023-06-29T12:20:13.394Z,10.45
2023-06-29T12:22:40.264Z,10.13
2023-06-29T12:25:09.557Z,10.53
2023-06-29T12:27:36.209Z,10.10
2023-06-29T12:30:02.627Z,10.13
2023-06-29T12:32:29.144Z,12.52
2023-06-29T12:34:55.687Z,9.95
2023-06-29T12:37:22.139Z,9.67
2023-06-29T12:39:48.580Z,11.20
2023-06-29T12:42:15.211Z,9.60
2023-06-29T12:44:41.786Z,9.70
2023-06-29T12:47:08.288Z,10.02
2023-06-29T12:49:34.756Z,10.10
2023-06-29T12:52:01.309Z,9.63
2023-06-29T12:54:27.738Z,9.85
2023-06-29T12:56:54.212Z,9.20
2023-06-29T12:59:20.625Z,9.85
2023-06-29T13:01:47.071Z,9.40
2023-06-29T13:04:13.809Z,9.25
2023-06-29T13:06:41.380Z,8.50
2023-06-29T13:09:08.247Z,8.60
2023-06-29T13:11:34.956Z,9.05
2023-06-29T13:14:01.422Z,8.23
2023-06-29T13:16:27.898Z,9.30
2023-06-29T13:18:54.572Z,9.10
2023-06-29T13:21:21.062Z,9.60
2023-06-29T13:23:48.128Z,9.20
2023-06-29T13:26:14.662Z,9.83
2023-06-29T13:28:41.383Z,9.73
2023-06-29T13:31:07.854Z,9.40
2023-06-29T13:33:34.400Z,9.05
2023-06-29T13:36:00.867Z,9.43
2023-06-29T13:38:27.361Z,9.23
2023-06-29T13:40:55.373Z,10.30
2023-06-29T13:43:21.728Z,9.88
2023-06-29T13:45:50.035Z,9.32
2023-06-29T13:48:17.335Z,9.20
2023-06-29T13:50:43.887Z,9.43
2023-06-29T13:53:10.417Z,8.98
2023-06-29T13:55:37.155Z,9.02
2023-06-29T13:58:03.534Z,9.23
2023-06-29T14:00:30.165Z,8.75
2023-06-29T14:02:56.635Z,8.77
2023-06-29T14:05:23.281Z,8.43
2023-06-29T14:07:49.750Z,9.05
2023-06-29T14:10:16.186Z,8.80
2023-06-29T14:12:42.590Z,9.68
2023-06-29T14:15:09.319Z,8.43
2023-06-29T14:17:36.032Z,9.45
2023-06-29T14:20:02.857Z,8.73
2023-06-29T14:22:29.235Z,9.23
2023-06-29T14:24:55.681Z,9.18
2023-06-29T14:27:22.120Z,9.80
2023-06-29T14:29:48.542Z,9.82
2023-06-29T14:32:15.007Z,9.98
2023-06-29T14:34:41.810Z,9.55
2023-06-29T14:37:08.637Z,9.82
2023-06-29T14:39:35.189Z,9.43
2023-06-29T14:42:01.818Z,9.60
2023-06-29T14:44:28.292Z,8.88
2023-06-29T14:46:54.791Z,8.50
2023-06-29T14:49:21.505Z,8.40
2023-06-29T14:51:48.064Z,7.50
2023-06-29T14:54:14.482Z,7.60
2023-06-29T14:56:41.489Z,7.18
2023-06-29T14:59:08.498Z,6.65
2023-06-29T15:01:35.242Z,6.75
2023-06-29T15:04:01.807Z,6.13
2023-06-29T15:06:28.471Z,6.40
2023-06-29T15:08:55.027Z,5.75
2023-06-29T15:11:21.640Z,4.80
2023-06-29T15:13:48.002Z,4.95
2023-06-29T15:16:14.533Z,4.50
2023-06-29T15:18:50.775Z,4.32
2023-06-29T15:21:21.304Z,4.30
2023-06-29T15:23:47.762Z,4.20
2023-06-29T15:26:14.595Z,3.67
2023-06-29T15:28:41.266Z,3.97
2023-06-29T15:31:07.996Z,3.83
2023-06-29T15:33:34.457Z,4.50
2023-06-29T15:36:00.970Z,3.75
2023-06-29T15:38:27.371Z,3.70
2023-06-29T15:40:54.466Z,3.30
2023-06-29T15:43:20.946Z,5.30
2023-06-29T15:45:47.604Z,3.10
2023-06-29T15:48:14.559Z,2.85
2023-06-29T15:50:41.112Z,3.00
2023-06-29T15:53:07.739Z,2.80
2023-06-29T15:55:34.573Z,3.55
2023-06-29T15:58:01.010Z,3.47
2023-06-29T16:00:28.171Z,3.90
2023-06-29T16:02:54.693Z,4.20
2023-06-29T16:05:21.306Z,4.27
2023-06-29T16:07:48.094Z,3.17
2023-06-29T16:10:15.098Z,3.70
2023-06-29T16:12:43.274Z,3.50
2023-06-29T16:15:09.846Z,3.83
2023-06-29T16:17:36.527Z,3.50
2023-06-29T16:20:03.334Z,3.65
2023-06-29T16:22:30.621Z,3.65
2023-06-29T16:24:57.130Z,3.63
2023-06-29T16:27:23.508Z,3.70
2023-06-29T16:29:50.419Z,3.30
2023-06-29T16:32:17.093Z,3.70
2023-06-29T16:34:43.737Z,3.33
2023-06-29T16:37:10.563Z,3.38
2023-06-29T16:39:37.357Z,2.70
2023-06-29T16:42:04.086Z,2.60
2023-06-29T16:44:30.524Z,2.50
2023-06-29T16:46:57.253Z,2.20
2023-06-29T16:49:23.900Z,2.20
2023-06-29T16:51:50.392Z,2.40
2023-06-29T16:54:16.865Z,2.00
2023-06-29T16:56:43.478Z,2.30
2023-06-29T16:59:10.271Z,2.10
2023-06-29T17:01:36.961Z,2.00
2023-06-29T17:04:03.622Z,2.10
2023-06-29T17:06:30.482Z,2.20
2023-06-29T17:08:57.169Z,2.13
2023-06-29T17:11:23.844Z,2.45
2023-06-29T17:13:50.324Z,2.22
2023-06-29T17:16:17.075Z,2.53
2023-06-29T17:18:43.938Z,2.20
2023-06-29T17:21:10.489Z,1.77
2023-06-29T17:23:36.986Z,1.92
2023-06-29T17:26:03.439Z,1.60
2023-06-29T17:28:29.847Z,1.80
2023-06-29T17:30:56.229Z,1.80
2023-06-29T17:33:22.801Z,2.08
2023-06-29T17:35:49.388Z,1.80
2023-06-29T17:38:15.913Z,1.75
2023-06-29T17:40:42.587Z,1.90
2023-06-29T17:43:09.080Z,1.77
2023-06-29T17:45:35.714Z,1.42
2023-06-29T17:48:02.234Z,1.70
2023-06-29T17:50:28.742Z,1.50
2023-06-29T17:52:55.178Z,1.70
2023-06-29T17:55:21.668Z,1.47
2023-06-29T17:57:48.223Z,1.48
2023-06-29T18:00:15.520Z,1.60
2023-06-29T18:02:42.318Z,1.50
2023-06-29T18:05:09.146Z,1.70
2023-06-29T18:07:36.093Z,1.70
2023-06-29T18:10:02.869Z,1.63
2023-06-29T18:12:29.539Z,1.60
2023-06-29T18:14:56.205Z,1.70
2023-06-29T18:17:22.746Z,1.50
2023-06-29T18:19:49.210Z,1.60
2023-06-29T18:22:15.696Z,2.00
2023-06-29T18:24:42.329Z,2.00
2023-06-29T18:27:08.834Z,1.90
2023-06-29T18:29:36.393Z,2.00
2023-06-29T18:32:02.769Z,1.80
2023-06-29T18:34:29.182Z,2.70
2023-06-29T18:36:56.385Z,1.88
2023-06-29T18:39:22.866Z,2.35
2023-06-29T18:41:49.313Z,2.03
2023-06-29T18:44:15.895Z,2.40
2023-06-29T18:47:02.283Z,2.00
2023-06-29T18:49:37.980Z,1.90
2023-06-29T18:52:13.041Z,2.10
2023-06-29T18:54:39.802Z,2.10
2023-06-29T18:57:07.288Z,2.10
2023-06-29T18:59:34.967Z,2.03
2023-06-29T19:02:01.862Z,2.00
2023-06-29T19:04:28.791Z,1.95
2023-06-29T19:06:55.241Z,1.90
2023-06-29T19:09:22.006Z,2.00
2023-06-29T19:11:48.504Z,1.80
2023-06-29T19:14:14.955Z,2.00
2023-06-29T19:16:42.095Z,2.00
2023-06-29T19:19:09.085Z,1.92
2023-06-29T19:21:47.620Z,1.97
2023-06-29T19:24:15.216Z,2.03
2023-06-29T19:26:41.953Z,2.13
2023-06-29T19:29:08.665Z,2.35
2023-06-29T19:31:35.267Z,2.00
2023-06-29T19:34:01.723Z,1.97
2023-06-29T19:36:28.151Z,2.10
2023-06-29T19:38:54.598Z,2.40
2023-06-29T19:41:20.987Z,2.20
2023-06-29T19:43:47.541Z,2.40
2023-06-29T19:46:14.124Z,2.10
2023-06-29T19:48:40.794Z,2.53
2023-06-29T19:51:07.585Z,2.20
2023-06-29T19:53:34.051Z,2.40
2023-06-29T19:56:00.597Z,2.50
2023-06-29T19:58:27.029Z,2.30
2023-06-29T20:00:53.427Z,2.40
2023-06-29T20:03:20.360Z,2.45
2023-06-29T20:05:47.202Z,2.50
2023-06-29T20:08:14.087Z,2.88
2023-06-29T20:10:40.513Z,2.60
2023-06-29T20:13:07.255Z,2.22
2023-06-29T20:15:33.816Z,2.50
2023-06-29T20:18:00.697Z,2.80
2023-06-29T20:20:27.116Z,2.88
2023-06-29T20:22:53.546Z,2.70
2023-06-29T20:25:19.992Z,2.75
2023-06-29T20:27:46.425Z,2.80
2023-06-29T20:30:13.150Z,2.33
2023-06-29T20:32:39.717Z,2.40
2023-06-29T20:35:06.366Z,2.40
2023-06-29T20:37:32.865Z,2.28
2023-06-29T20:39:59.916Z,2.33
2023-06-29T20:42:26.354Z,2.08
2023-06-29T20:44:53.741Z,2.33
2023-06-29T20:47:20.579Z,2.53
2023-06-29T20:49:47.032Z,2.35
2023-06-29T20:52:13.634Z,2.55
2023-06-29T20:54:39.977Z,2.40
2023-06-29T20:57:06.688Z,2.60
2023-06-29T20:59:34.803Z,2.43
2023-06-29T21:02:01.873Z,2.58
2023-06-29T21:04:28.555Z,2.40
2023-06-29T21:06:55.152Z,2.50
2023-06-29T21:09:21.803Z,2.55
2023-06-29T21:11:48.407Z,2.20
2023-06-29T21:14:15.253Z,2.35
2023-06-29T21:16:42.034Z,2.17
2023-06-29T21:19:08.899Z,2.30
2023-06-29T21:21:35.581Z,2.17
2023-06-29T21:24:02.173Z,2.47
2023-06-29T21:26:28.975Z,2.10
2023-06-29T21:28:58.152Z,2.30
2023-06-29T21:31:24.616Z,2.20
2023-06-29T21:33:51.376Z,2.40
2023-06-29T21:36:17.863Z,2.60
2023-06-29T21:38:50.443Z,2.25
2023-06-29T21:41:17.390Z,2.95
2023-06-29T21:43:43.815Z,2.20
2023-06-29T21:46:10.450Z,2.40
2023-06-29T21:48:36.946Z,2.20
2023-06-29T21:51:03.456Z,2.28
2023-06-29T21:53:29.880Z,2.28
2023-06-29T21:56:05.995Z,2.45
2023-06-29T21:58:39.992Z,2.40
2023-06-29T22:01:06.425Z,2.50
2023-06-29T22:03:32.925Z,2.40
2023-06-29T22:05:59.387Z,1.90
2023-06-29T22:08:25.795Z,2.33
2023-06-29T22:10:52.282Z,1.95
2023-06-29T22:13:18.818Z,2.10
2023-06-29T22:15:45.485Z,2.20
2023-06-29T22:20:38.615Z,2.05
2023-06-29T22:23:05.088Z,2.08
2023-06-29T22:25:31.684Z,1.80
2023-06-29T22:27:58.070Z,1.77
2023-06-29T22:30:24.735Z,2.00
2023-06-29T22:32:52.842Z,2.28
2023-06-29T22:35:19.709Z,1.88
2023-06-29T22:37:46.192Z,1.97
2023-06-29T22:40:12.848Z,1.98
2023-06-29T22:42:39.425Z,2.08
2023-06-29T22:45:06.083Z,1.90
2023-06-29T22:47:32.465Z,2.03
2023-06-29T22:49:58.967Z,2.13
2023-06-29T22:52:25.313Z,2.10
2023-06-29T22:54:51.744Z,1.90
2023-06-29T22:57:19.268Z,2.20
2023-06-29T22:59:45.629Z,1.80
2023-06-29T23:02:12.038Z,2.20
2023-06-29T23:04:38.636Z,2.30
2023-06-29T23:07:05.285Z,2.10
2023-06-29T23:09:31.690Z,2.15
2023-06-29T23:11:58.219Z,2.00
2023-06-29T23:14:24.672Z,2.40
2023-06-29T23:16:51.140Z,2.35
2023-06-29T23:19:17.540Z,2.58
2023-06-29T23:21:43.998Z,2.30
2023-06-29T23:24:10.411Z,2.03
2023-06-29T23:26:36.937Z,2.10
2023-06-29T23:29:03.379Z,2.03
2023-06-29T23:31:30.103Z,2.08
2023-06-29T23:33:56.681Z,2.40
2023-06-29T23:36:23.105Z,2.55
2023-06-29T23:38:50.159Z,2.20
2023-06-29T23:41:17.031Z,2.42
2023-06-29T23:43:43.661Z,2.50
2023-06-29T23:46:11.663Z,2.38
2023-06-29T23:48:38.248Z,2.30
2023-06-29T23:51:04.678Z,2.30
2023-06-29T23:53:31.088Z,2.22
2023-06-29T23:55:57.489Z,2.30
2023-06-29T23:58:23.829Z,2.20
